sensor_id;sensor_type;location;lat;lon;timestamp;temperature;humidity
1978;DHT22;989;53.016;8.346;2022-10-31T00:01:33;12.80;99.90
1978;DHT22;989;53.016;8.346;2022-10-31T00:04:02;12.60;99.90
1978;DHT22;989;53.016;8.346;2022-10-31T00:06:29;12.50;99.90
1978;DHT22;989;53.016;8.346;2022-10-31T00:08:58;12.50;99.90
1978;DHT22;989;53.016;8.346;2022-10-31T00:11:25;12.50;99.90
1978;DHT22;989;53.016;8.346;2022-10-31T00:13:51;12.40;99.90
1978;DHT22;989;53.016;8.346;2022-10-31T00:16:21;12.30;99.90
1978;DHT22;989;53.016;8.346;2022-10-31T00:18:49;12.30;99.90
1978;DHT22;989;53.016;8.346;2022-10-31T00:21:19;12.60;99.90
1978;DHT22;989;53.016;8.346;2022-10-31T00:23:45;12.50;99.90
1978;DHT22;989;53.016;8.346;2022-10-31T00:26:11;12.50;99.90
1978;DHT22;989;53.016;8.346;2022-10-31T00:28:37;12.50;99.90
1978;DHT22;989;53.016;8.346;2022-10-31T00:31:05;12.30;99.90
1978;DHT22;989;53.016;8.346;2022-10-31T00:33:33;12.40;99.90
1978;DHT22;989;53.016;8.346;2022-10-31T00:36:02;12.30;99.90
1978;DHT22;989;53.016;8.346;2022-10-31T00:38:29;12.40;99.90
1978;DHT22;989;53.016;8.346;2022-10-31T00:40:54;12.50;99.90
1978;DHT22;989;53.016;8.346;2022-10-31T00:43:20;12.60;99.90
1978;DHT22;989;53.016;8.346;2022-10-31T00:45:46;12.70;99.90
1978;DHT22;989;53.016;8.346;2022-10-31T00:48:11;12.70;99.90
1978;DHT22;989;53.016;8.346;2022-10-31T00:50:38;12.70;99.90
1978;DHT22;989;53.016;8.346;2022-10-31T00:53:04;12.90;99.90
1978;DHT22;989;53.016;8.346;2022-10-31T00:55:29;12.80;99.90
1978;DHT22;989;53.016;8.346;2022-10-31T00:57:55;12.70;99.90
1978;DHT22;989;53.016;8.346;2022-10-31T01:00:21;12.70;99.90
1978;DHT22;989;53.016;8.346;2022-10-31T01:02:47;12.50;99.90
1978;DHT22;989;53.016;8.346;2022-10-31T01:05:12;12.40;99.90
1978;DHT22;989;53.016;8.346;2022-10-31T01:07:40;12.20;99.90
1978;DHT22;989;53.016;8.346;2022-10-31T01:10:08;12.10;99.90
1978;DHT22;989;53.016;8.346;2022-10-31T01:12:42;12.00;99.90
1978;DHT22;989;53.016;8.346;2022-10-31T01:15:11;12.00;99.90
1978;DHT22;989;53.016;8.346;2022-10-31T01:17:38;11.90;99.90
1978;DHT22;989;53.016;8.346;2022-10-31T01:20:05;11.80;99.90
1978;DHT22;989;53.016;8.346;2022-10-31T01:22:33;11.80;99.90
1978;DHT22;989;53.016;8.346;2022-10-31T01:24:58;11.70;99.90
1978;DHT22;989;53.016;8.346;2022-10-31T01:27:24;11.60;99.90
1978;DHT22;989;53.016;8.346;2022-10-31T01:29:50;11.50;99.90
1978;DHT22;989;53.016;8.346;2022-10-31T01:32:16;11.40;99.90
1978;DHT22;989;53.016;8.346;2022-10-31T01:34:41;11.20;99.90
1978;DHT22;989;53.016;8.346;2022-10-31T01:37:07;11.00;99.90
1978;DHT22;989;53.016;8.346;2022-10-31T01:39:33;10.90;99.90
1978;DHT22;989;53.016;8.346;2022-10-31T01:41:58;10.80;99.90
1978;DHT22;989;53.016;8.346;2022-10-31T01:47:10;10.70;99.90
1978;DHT22;989;53.016;8.346;2022-10-31T01:52:24;10.60;99.90
1978;DHT22;989;53.016;8.346;2022-10-31T01:55:11;10.70;99.90
1978;DHT22;989;53.016;8.346;2022-10-31T01:57:46;10.60;99.90
1978;DHT22;989;53.016;8.346;2022-10-31T02:00:13;10.60;99.90
1978;DHT22;989;53.016;8.346;2022-10-31T02:02:40;10.70;99.90
1978;DHT22;989;53.016;8.346;2022-10-31T02:05:09;10.80;99.90
1978;DHT22;989;53.016;8.346;2022-10-31T02:07:44;10.70;99.90
1978;DHT22;989;53.016;8.346;2022-10-31T02:10:14;10.70;99.90
1978;DHT22;989;53.016;8.346;2022-10-31T02:12:41;10.60;99.90
1978;DHT22;989;53.016;8.346;2022-10-31T02:15:08;10.40;99.90
1978;DHT22;989;53.016;8.346;2022-10-31T02:17:34;10.30;99.90
1978;DHT22;989;53.016;8.346;2022-10-31T02:20:16;10.20;99.90
1978;DHT22;989;53.016;8.346;2022-10-31T02:23:05;10.10;99.90
1978;DHT22;989;53.016;8.346;2022-10-31T02:37:47;10.10;99.90
1978;DHT22;989;53.016;8.346;2022-10-31T02:40:25;10.10;99.90
1978;DHT22;989;53.016;8.346;2022-10-31T02:43:21;10.10;99.90
1978;DHT22;989;53.016;8.346;2022-10-31T02:46:08;10.10;99.90
1978;DHT22;989;53.016;8.346;2022-10-31T02:48:40;10.00;99.90
1978;DHT22;989;53.016;8.346;2022-10-31T02:51:07;10.00;99.90
1978;DHT22;989;53.016;8.346;2022-10-31T02:53:35;9.90;99.90
1978;DHT22;989;53.016;8.346;2022-10-31T02:56:06;10.00;99.90
1978;DHT22;989;53.016;8.346;2022-10-31T02:58:36;10.10;99.90
1978;DHT22;989;53.016;8.346;2022-10-31T03:01:07;10.20;99.90
1978;DHT22;989;53.016;8.346;2022-10-31T03:06:54;10.50;99.90
1978;DHT22;989;53.016;8.346;2022-10-31T03:09:33;10.40;99.90
1978;DHT22;989;53.016;8.346;2022-10-31T03:12:28;10.50;99.90
1978;DHT22;989;53.016;8.346;2022-10-31T03:15:14;10.50;99.90
1978;DHT22;989;53.016;8.346;2022-10-31T03:18:09;10.60;99.90
1978;DHT22;989;53.016;8.346;2022-10-31T03:20:52;10.60;99.90
1978;DHT22;989;53.016;8.346;2022-10-31T03:23:22;10.60;99.90
1978;DHT22;989;53.016;8.346;2022-10-31T03:25:49;10.60;99.90
1978;DHT22;989;53.016;8.346;2022-10-31T03:28:18;10.60;99.90
1978;DHT22;989;53.016;8.346;2022-10-31T03:30:48;10.80;99.90
1978;DHT22;989;53.016;8.346;2022-10-31T03:33:23;10.80;99.90
1978;DHT22;989;53.016;8.346;2022-10-31T03:35:53;10.90;99.90
1978;DHT22;989;53.016;8.346;2022-10-31T03:38:21;11.00;99.90
1978;DHT22;989;53.016;8.346;2022-10-31T03:40:47;11.00;99.90
1978;DHT22;989;53.016;8.346;2022-10-31T03:43:16;11.00;99.90
1978;DHT22;989;53.016;8.346;2022-10-31T03:45:46;10.90;99.90
1978;DHT22;989;53.016;8.346;2022-10-31T03:48:17;11.00;99.90
1978;DHT22;989;53.016;8.346;2022-10-31T03:53:31;10.90;99.90
1978;DHT22;989;53.016;8.346;2022-10-31T03:56:10;10.80;99.90
1978;DHT22;989;53.016;8.346;2022-10-31T03:58:47;10.70;99.90
1978;DHT22;989;53.016;8.346;2022-10-31T04:01:17;10.70;99.90
1978;DHT22;989;53.016;8.346;2022-10-31T04:03:44;10.60;99.90
1978;DHT22;989;53.016;8.346;2022-10-31T04:06:12;10.60;99.90
1978;DHT22;989;53.016;8.346;2022-10-31T04:08:48;10.60;99.90
1978;DHT22;989;53.016;8.346;2022-10-31T04:11:19;10.50;99.90
1978;DHT22;989;53.016;8.346;2022-10-31T04:13:48;10.50;99.90
1978;DHT22;989;53.016;8.346;2022-10-31T04:16:15;10.50;99.90
1978;DHT22;989;53.016;8.346;2022-10-31T04:18:41;10.40;99.90
1978;DHT22;989;53.016;8.346;2022-10-31T04:21:07;10.40;99.90
1978;DHT22;989;53.016;8.346;2022-10-31T04:23:34;10.40;99.90
1978;DHT22;989;53.016;8.346;2022-10-31T04:26:01;10.40;99.90
1978;DHT22;989;53.016;8.346;2022-10-31T04:28:27;10.40;99.90
1978;DHT22;989;53.016;8.346;2022-10-31T04:30:52;10.50;99.90
1978;DHT22;989;53.016;8.346;2022-10-31T04:33:18;10.50;99.90
1978;DHT22;989;53.016;8.346;2022-10-31T04:35:44;10.50;99.90
1978;DHT22;989;53.016;8.346;2022-10-31T04:38:10;10.50;99.90
1978;DHT22;989;53.016;8.346;2022-10-31T04:40:36;10.60;99.90
1978;DHT22;989;53.016;8.346;2022-10-31T04:43:02;10.50;99.90
1978;DHT22;989;53.016;8.346;2022-10-31T04:45:27;10.50;99.90
1978;DHT22;989;53.016;8.346;2022-10-31T04:47:53;10.40;99.90
1978;DHT22;989;53.016;8.346;2022-10-31T04:50:18;10.50;99.90
1978;DHT22;989;53.016;8.346;2022-10-31T04:52:45;10.50;99.90
1978;DHT22;989;53.016;8.346;2022-10-31T04:55:12;10.60;99.90
1978;DHT22;989;53.016;8.346;2022-10-31T04:57:47;10.60;99.90
1978;DHT22;989;53.016;8.346;2022-10-31T05:00:15;10.60;99.90
1978;DHT22;989;53.016;8.346;2022-10-31T05:02:50;10.60;99.90
1978;DHT22;989;53.016;8.346;2022-10-31T05:05:20;10.50;99.90
1978;DHT22;989;53.016;8.346;2022-10-31T05:07:48;10.50;99.90
1978;DHT22;989;53.016;8.346;2022-10-31T05:10:16;10.50;99.90
1978;DHT22;989;53.016;8.346;2022-10-31T05:12:48;10.60;99.90
1978;DHT22;989;53.016;8.346;2022-10-31T05:15:15;10.60;99.90
1978;DHT22;989;53.016;8.346;2022-10-31T05:17:42;10.60;99.90
1978;DHT22;989;53.016;8.346;2022-10-31T05:20:09;10.70;99.90
1978;DHT22;989;53.016;8.346;2022-10-31T05:22:36;10.70;99.90
1978;DHT22;989;53.016;8.346;2022-10-31T05:25:02;10.70;99.90
1978;DHT22;989;53.016;8.346;2022-10-31T05:27:27;10.80;99.90
1978;DHT22;989;53.016;8.346;2022-10-31T05:29:53;10.70;99.90
1978;DHT22;989;53.016;8.346;2022-10-31T05:32:19;10.70;99.90
1978;DHT22;989;53.016;8.346;2022-10-31T05:34:44;10.80;99.90
1978;DHT22;989;53.016;8.346;2022-10-31T05:37:10;10.80;99.90
1978;DHT22;989;53.016;8.346;2022-10-31T05:39:35;10.90;99.90
1978;DHT22;989;53.016;8.346;2022-10-31T05:42:01;10.90;99.90
1978;DHT22;989;53.016;8.346;2022-10-31T05:44:27;10.90;99.90
1978;DHT22;989;53.016;8.346;2022-10-31T05:46:52;10.80;99.90
1978;DHT22;989;53.016;8.346;2022-10-31T05:49:18;10.80;99.90
1978;DHT22;989;53.016;8.346;2022-10-31T05:51:44;10.80;99.90
1978;DHT22;989;53.016;8.346;2022-10-31T05:54:09;10.70;99.90
1978;DHT22;989;53.016;8.346;2022-10-31T05:56:35;10.70;99.90
1978;DHT22;989;53.016;8.346;2022-10-31T05:59:00;10.70;99.90
1978;DHT22;989;53.016;8.346;2022-10-31T06:01:26;10.70;99.90
1978;DHT22;989;53.016;8.346;2022-10-31T06:03:52;10.70;99.90
1978;DHT22;989;53.016;8.346;2022-10-31T06:06:17;10.50;99.90
1978;DHT22;989;53.016;8.346;2022-10-31T06:08:43;10.50;99.90
1978;DHT22;989;53.016;8.346;2022-10-31T06:11:08;10.40;99.90
1978;DHT22;989;53.016;8.346;2022-10-31T06:13:34;10.40;99.90
1978;DHT22;989;53.016;8.346;2022-10-31T06:16:00;10.30;99.90
1978;DHT22;989;53.016;8.346;2022-10-31T06:18:25;10.20;99.90
1978;DHT22;989;53.016;8.346;2022-10-31T06:20:51;10.10;99.90
1978;DHT22;989;53.016;8.346;2022-10-31T06:23:16;10.10;99.90
1978;DHT22;989;53.016;8.346;2022-10-31T06:25:42;10.10;99.90
1978;DHT22;989;53.016;8.346;2022-10-31T06:28:08;10.10;99.90
1978;DHT22;989;53.016;8.346;2022-10-31T06:30:33;10.00;99.90
1978;DHT22;989;53.016;8.346;2022-10-31T06:33:03;9.90;99.90
1978;DHT22;989;53.016;8.346;2022-10-31T06:35:30;9.70;99.90
1978;DHT22;989;53.016;8.346;2022-10-31T06:37:56;9.70;99.90
1978;DHT22;989;53.016;8.346;2022-10-31T06:40:22;9.60;99.90
1978;DHT22;989;53.016;8.346;2022-10-31T06:42:58;9.50;99.90
1978;DHT22;989;53.016;8.346;2022-10-31T06:45:25;9.40;99.90
1978;DHT22;989;53.016;8.346;2022-10-31T06:47:52;9.50;99.90
1978;DHT22;989;53.016;8.346;2022-10-31T06:50:19;9.50;99.90
1978;DHT22;989;53.016;8.346;2022-10-31T06:52:53;9.50;99.90
1978;DHT22;989;53.016;8.346;2022-10-31T06:55:21;9.50;99.90
1978;DHT22;989;53.016;8.346;2022-10-31T06:57:55;9.50;99.90
1978;DHT22;989;53.016;8.346;2022-10-31T07:00:22;9.50;99.90
1978;DHT22;989;53.016;8.346;2022-10-31T07:02:56;9.50;99.90
1978;DHT22;989;53.016;8.346;2022-10-31T07:05:27;9.50;99.90
1978;DHT22;989;53.016;8.346;2022-10-31T07:07:55;9.50;99.90
1978;DHT22;989;53.016;8.346;2022-10-31T07:10:23;9.50;99.90
1978;DHT22;989;53.016;8.346;2022-10-31T07:12:59;9.50;99.90
1978;DHT22;989;53.016;8.346;2022-10-31T07:15:30;9.60;99.90
1978;DHT22;989;53.016;8.346;2022-10-31T07:18:03;9.60;99.90
1978;DHT22;989;53.016;8.346;2022-10-31T07:20:30;9.60;99.90
1978;DHT22;989;53.016;8.346;2022-10-31T07:22:56;9.60;99.90
1978;DHT22;989;53.016;8.346;2022-10-31T07:25:23;9.80;99.90
1978;DHT22;989;53.016;8.346;2022-10-31T07:27:49;9.90;99.90
1978;DHT22;989;53.016;8.346;2022-10-31T07:30:15;9.90;99.90
1978;DHT22;989;53.016;8.346;2022-10-31T07:32:45;9.90;99.90
1978;DHT22;989;53.016;8.346;2022-10-31T07:35:17;10.00;99.90
1978;DHT22;989;53.016;8.346;2022-10-31T07:37:48;10.10;99.90
1978;DHT22;989;53.016;8.346;2022-10-31T07:40:15;10.20;99.90
1978;DHT22;989;53.016;8.346;2022-10-31T07:42:43;10.20;99.90
1978;DHT22;989;53.016;8.346;2022-10-31T07:45:12;10.40;99.90
1978;DHT22;989;53.016;8.346;2022-10-31T07:47:40;10.50;99.90
1978;DHT22;989;53.016;8.346;2022-10-31T07:50:17;10.60;99.90
1978;DHT22;989;53.016;8.346;2022-10-31T07:52:44;10.60;99.90
1978;DHT22;989;53.016;8.346;2022-10-31T07:55:10;10.70;99.90
1978;DHT22;989;53.016;8.346;2022-10-31T07:57:36;10.80;99.90
1978;DHT22;989;53.016;8.346;2022-10-31T08:00:07;10.90;99.90
1978;DHT22;989;53.016;8.346;2022-10-31T08:02:34;11.10;99.90
1978;DHT22;989;53.016;8.346;2022-10-31T08:05:00;11.30;99.90
1978;DHT22;989;53.016;8.346;2022-10-31T08:07:27;11.20;99.90
1978;DHT22;989;53.016;8.346;2022-10-31T08:09:54;11.20;99.90
1978;DHT22;989;53.016;8.346;2022-10-31T08:12:21;11.20;99.90
1978;DHT22;989;53.016;8.346;2022-10-31T08:14:46;11.30;99.90
1978;DHT22;989;53.016;8.346;2022-10-31T08:17:12;11.40;99.90
1978;DHT22;989;53.016;8.346;2022-10-31T08:19:38;11.50;99.90
1978;DHT22;989;53.016;8.346;2022-10-31T08:22:04;11.60;99.90
1978;DHT22;989;53.016;8.346;2022-10-31T08:24:29;11.50;99.90
1978;DHT22;989;53.016;8.346;2022-10-31T08:26:55;11.50;99.90
1978;DHT22;989;53.016;8.346;2022-10-31T08:29:20;11.50;99.90
1978;DHT22;989;53.016;8.346;2022-10-31T08:31:46;11.60;99.90
1978;DHT22;989;53.016;8.346;2022-10-31T08:34:12;11.80;99.90
1978;DHT22;989;53.016;8.346;2022-10-31T08:36:37;11.80;99.90
1978;DHT22;989;53.016;8.346;2022-10-31T08:39:03;11.80;99.90
1978;DHT22;989;53.016;8.346;2022-10-31T08:41:29;11.70;99.90
1978;DHT22;989;53.016;8.346;2022-10-31T08:43:55;11.60;99.90
1978;DHT22;989;53.016;8.346;2022-10-31T08:46:21;11.60;99.90
1978;DHT22;989;53.016;8.346;2022-10-31T08:48:49;11.60;99.90
1978;DHT22;989;53.016;8.346;2022-10-31T08:51:15;11.70;99.90
1978;DHT22;989;53.016;8.346;2022-10-31T08:53:41;11.70;99.90
1978;DHT22;989;53.016;8.346;2022-10-31T08:56:07;11.50;99.90
1978;DHT22;989;53.016;8.346;2022-10-31T08:58:32;11.50;99.90
1978;DHT22;989;53.016;8.346;2022-10-31T09:01:00;11.40;99.90
1978;DHT22;989;53.016;8.346;2022-10-31T09:03:28;11.60;99.90
1978;DHT22;989;53.016;8.346;2022-10-31T09:05:56;11.60;99.90
1978;DHT22;989;53.016;8.346;2022-10-31T09:08:23;11.60;99.90
1978;DHT22;989;53.016;8.346;2022-10-31T09:10:49;11.70;99.90
1978;DHT22;989;53.016;8.346;2022-10-31T09:13:17;11.70;99.90
1978;DHT22;989;53.016;8.346;2022-10-31T09:15:46;11.90;99.90
1978;DHT22;989;53.016;8.346;2022-10-31T09:18:14;12.00;99.90
1978;DHT22;989;53.016;8.346;2022-10-31T09:20:42;12.00;99.90
1978;DHT22;989;53.016;8.346;2022-10-31T09:23:11;12.00;99.90
1978;DHT22;989;53.016;8.346;2022-10-31T09:25:39;11.80;99.90
1978;DHT22;989;53.016;8.346;2022-10-31T09:28:07;11.90;99.90
1978;DHT22;989;53.016;8.346;2022-10-31T09:30:36;11.90;99.90
1978;DHT22;989;53.016;8.346;2022-10-31T09:33:06;12.00;99.90
1978;DHT22;989;53.016;8.346;2022-10-31T09:35:35;11.90;99.90
1978;DHT22;989;53.016;8.346;2022-10-31T09:38:04;11.90;99.90
1978;DHT22;989;53.016;8.346;2022-10-31T09:40:40;12.00;99.90
1978;DHT22;989;53.016;8.346;2022-10-31T09:52:35;12.50;99.90
1978;DHT22;989;53.016;8.346;2022-10-31T09:55:18;12.60;99.90
1978;DHT22;989;53.016;8.346;2022-10-31T09:57:47;12.80;99.90
1978;DHT22;989;53.016;8.346;2022-10-31T10:00:19;13.00;99.90
1978;DHT22;989;53.016;8.346;2022-10-31T10:03:43;13.00;99.90
1978;DHT22;989;53.016;8.346;2022-10-31T10:06:22;13.50;99.90
1978;DHT22;989;53.016;8.346;2022-10-31T10:08:50;13.80;99.90
1978;DHT22;989;53.016;8.346;2022-10-31T10:11:47;13.90;99.90
1978;DHT22;989;53.016;8.346;2022-10-31T10:18:20;13.50;99.90
1978;DHT22;989;53.016;8.346;2022-10-31T10:21:01;13.60;99.90
1978;DHT22;989;53.016;8.346;2022-10-31T10:23:45;13.80;99.90
1978;DHT22;989;53.016;8.346;2022-10-31T10:26:40;13.80;99.90
1978;DHT22;989;53.016;8.346;2022-10-31T10:29:17;14.10;99.90
1978;DHT22;989;53.016;8.346;2022-10-31T10:31:51;14.40;99.90
1978;DHT22;989;53.016;8.346;2022-10-31T10:34:22;14.20;99.90
1978;DHT22;989;53.016;8.346;2022-10-31T10:37:04;14.30;99.90
1978;DHT22;989;53.016;8.346;2022-10-31T10:39:48;14.50;99.90
1978;DHT22;989;53.016;8.346;2022-10-31T10:42:16;14.40;99.90
1978;DHT22;989;53.016;8.346;2022-10-31T10:45:18;14.80;99.90
1978;DHT22;989;53.016;8.346;2022-10-31T10:48:16;15.00;99.90
1978;DHT22;989;53.016;8.346;2022-10-31T10:50:51;15.00;99.90
1978;DHT22;989;53.016;8.346;2022-10-31T10:53:39;15.10;99.90
1978;DHT22;989;53.016;8.346;2022-10-31T10:59:16;15.30;99.90
1978;DHT22;989;53.016;8.346;2022-10-31T11:01:44;15.60;99.90
1978;DHT22;989;53.016;8.346;2022-10-31T11:04:28;15.70;99.90
1978;DHT22;989;53.016;8.346;2022-10-31T11:09:35;16.50;99.90
1978;DHT22;989;53.016;8.346;2022-10-31T11:12:09;16.40;99.90
1978;DHT22;989;53.016;8.346;2022-10-31T11:14:45;16.80;99.90
1978;DHT22;989;53.016;8.346;2022-10-31T11:17:27;17.20;99.90
1978;DHT22;989;53.016;8.346;2022-10-31T11:20:01;17.30;93.10
1978;DHT22;989;53.016;8.346;2022-10-31T11:22:31;17.50;89.70
1978;DHT22;989;53.016;8.346;2022-10-31T11:24:57;17.40;74.40
1978;DHT22;989;53.016;8.346;2022-10-31T11:27:24;17.60;75.70
1978;DHT22;989;53.016;8.346;2022-10-31T11:29:51;17.70;78.50
1978;DHT22;989;53.016;8.346;2022-10-31T11:32:27;18.00;66.60
1978;DHT22;989;53.016;8.346;2022-10-31T11:34:59;18.20;49.10
1978;DHT22;989;53.016;8.346;2022-10-31T11:37:33;18.00;36.90
1978;DHT22;989;53.016;8.346;2022-10-31T11:40:03;18.00;35.80
1978;DHT22;989;53.016;8.346;2022-10-31T11:42:39;18.00;42.90
1978;DHT22;989;53.016;8.346;2022-10-31T11:45:17;18.00;30.90
1978;DHT22;989;53.016;8.346;2022-10-31T11:47:54;18.00;36.40
1978;DHT22;989;53.016;8.346;2022-10-31T11:50:24;18.30;29.90
1978;DHT22;989;53.016;8.346;2022-10-31T11:53:15;18.70;20.50
1978;DHT22;989;53.016;8.346;2022-10-31T11:55:42;18.50;16.10
1978;DHT22;989;53.016;8.346;2022-10-31T11:58:25;18.50;18.10
1978;DHT22;989;53.016;8.346;2022-10-31T12:00:54;18.40;20.00
1978;DHT22;989;53.016;8.346;2022-10-31T12:06:22;18.10;21.40
1978;DHT22;989;53.016;8.346;2022-10-31T12:08:50;17.80;26.00
1978;DHT22;989;53.016;8.346;2022-10-31T12:19:34;17.10;32.60
1978;DHT22;989;53.016;8.346;2022-10-31T12:22:48;17.20;34.00
1978;DHT22;989;53.016;8.346;2022-10-31T12:37:09;17.90;25.70
1978;DHT22;989;53.016;8.346;2022-10-31T12:43:24;18.10;16.80
1978;DHT22;989;53.016;8.346;2022-10-31T12:45:58;18.10;14.00
1978;DHT22;989;53.016;8.346;2022-10-31T12:51:39;17.80;18.70
1978;DHT22;989;53.016;8.346;2022-10-31T12:54:30;17.60;23.50
1978;DHT22;989;53.016;8.346;2022-10-31T12:57:23;17.50;24.60
1978;DHT22;989;53.016;8.346;2022-10-31T13:02:55;17.40;26.80
1978;DHT22;989;53.016;8.346;2022-10-31T13:05:43;17.40;26.20
1978;DHT22;989;53.016;8.346;2022-10-31T13:08:17;17.30;28.00
1978;DHT22;989;53.016;8.346;2022-10-31T13:10:56;17.10;31.60
1978;DHT22;989;53.016;8.346;2022-10-31T13:13:44;17.10;36.80
1978;DHT22;989;53.016;8.346;2022-10-31T13:16:24;17.30;28.20
1978;DHT22;989;53.016;8.346;2022-10-31T13:19:03;17.30;17.90
1978;DHT22;989;53.016;8.346;2022-10-31T13:21:45;17.30;20.10
1978;DHT22;989;53.016;8.346;2022-10-31T13:24:25;17.30;21.80
1978;DHT22;989;53.016;8.346;2022-10-31T13:26:57;17.40;16.70
1978;DHT22;989;53.016;8.346;2022-10-31T13:29:28;17.40;17.70
1978;DHT22;989;53.016;8.346;2022-10-31T13:31:56;17.40;15.70
1978;DHT22;989;53.016;8.346;2022-10-31T13:34:27;17.40;15.20
1978;DHT22;989;53.016;8.346;2022-10-31T13:36:57;17.40;18.90
1978;DHT22;989;53.016;8.346;2022-10-31T13:42:25;17.50;14.60
1978;DHT22;989;53.016;8.346;2022-10-31T13:45:12;17.30;16.00
1978;DHT22;989;53.016;8.346;2022-10-31T13:47:40;17.20;17.20
1978;DHT22;989;53.016;8.346;2022-10-31T13:50:28;17.20;20.10
1978;DHT22;989;53.016;8.346;2022-10-31T13:55:44;16.90;24.90
1978;DHT22;989;53.016;8.346;2022-10-31T13:58:29;16.90;27.10
1978;DHT22;989;53.016;8.346;2022-10-31T14:03:43;16.90;28.80
1978;DHT22;989;53.016;8.346;2022-10-31T14:06:11;17.00;26.30
1978;DHT22;989;53.016;8.346;2022-10-31T14:08:40;17.10;23.30
1978;DHT22;989;53.016;8.346;2022-10-31T14:11:24;17.00;21.70
1978;DHT22;989;53.016;8.346;2022-10-31T14:13:54;17.10;24.80
1978;DHT22;989;53.016;8.346;2022-10-31T14:16:30;16.90;29.80
1978;DHT22;989;53.016;8.346;2022-10-31T14:21:38;17.10;37.70
1978;DHT22;989;53.016;8.346;2022-10-31T14:24:31;17.10;39.90
1978;DHT22;989;53.016;8.346;2022-10-31T14:27:00;17.10;43.20
1978;DHT22;989;53.016;8.346;2022-10-31T14:29:32;17.10;44.40
1978;DHT22;989;53.016;8.346;2022-10-31T14:37:40;16.80;54.70
1978;DHT22;989;53.016;8.346;2022-10-31T14:46:35;16.50;65.30
1978;DHT22;989;53.016;8.346;2022-10-31T14:52:01;16.10;75.70
1978;DHT22;989;53.016;8.346;2022-10-31T14:54:34;15.90;79.40
1978;DHT22;989;53.016;8.346;2022-10-31T14:57:22;15.80;84.40
1978;DHT22;989;53.016;8.346;2022-10-31T14:59:54;15.70;88.10
1978;DHT22;989;53.016;8.346;2022-10-31T15:02:34;15.60;91.80
1978;DHT22;989;53.016;8.346;2022-10-31T15:05:10;15.60;92.20
1978;DHT22;989;53.016;8.346;2022-10-31T15:07:57;15.50;93.40
1978;DHT22;989;53.016;8.346;2022-10-31T15:10:29;15.40;93.20
1978;DHT22;989;53.016;8.346;2022-10-31T15:13:19;15.30;94.50
1978;DHT22;989;53.016;8.346;2022-10-31T15:15:47;15.20;95.60
1978;DHT22;989;53.016;8.346;2022-10-31T15:18:17;15.10;96.60
1978;DHT22;989;53.016;8.346;2022-10-31T15:20:45;15.00;97.80
1978;DHT22;989;53.016;8.346;2022-10-31T15:23:31;14.90;98.50
1978;DHT22;989;53.016;8.346;2022-10-31T15:25:59;14.90;99.20
1978;DHT22;989;53.016;8.346;2022-10-31T15:28:26;14.80;99.90
1978;DHT22;989;53.016;8.346;2022-10-31T15:30:54;14.70;99.90
1978;DHT22;989;53.016;8.346;2022-10-31T15:33:31;14.60;99.90
1978;DHT22;989;53.016;8.346;2022-10-31T15:36:04;14.60;99.90
1978;DHT22;989;53.016;8.346;2022-10-31T15:38:30;14.50;99.90
1978;DHT22;989;53.016;8.346;2022-10-31T15:41:03;14.50;99.90
1978;DHT22;989;53.016;8.346;2022-10-31T15:43:36;14.40;99.90
1978;DHT22;989;53.016;8.346;2022-10-31T15:46:03;14.30;99.90
1978;DHT22;989;53.016;8.346;2022-10-31T15:48:32;14.30;99.90
1978;DHT22;989;53.016;8.346;2022-10-31T15:51:00;14.20;99.90
1978;DHT22;989;53.016;8.346;2022-10-31T15:53:46;14.20;99.90
1978;DHT22;989;53.016;8.346;2022-10-31T15:56:21;14.20;99.90
1978;DHT22;989;53.016;8.346;2022-10-31T15:58:51;14.10;99.90
1978;DHT22;989;53.016;8.346;2022-10-31T16:01:27;14.00;99.90
1978;DHT22;989;53.016;8.346;2022-10-31T16:04:03;14.00;99.90
1978;DHT22;989;53.016;8.346;2022-10-31T16:06:30;13.90;99.90
1978;DHT22;989;53.016;8.346;2022-10-31T16:08:58;13.90;99.90
1978;DHT22;989;53.016;8.346;2022-10-31T16:16:44;13.70;99.90
1978;DHT22;989;53.016;8.346;2022-10-31T16:19:35;13.60;99.90
1978;DHT22;989;53.016;8.346;2022-10-31T16:22:18;13.60;99.90
1978;DHT22;989;53.016;8.346;2022-10-31T16:24:49;13.50;99.90
1978;DHT22;989;53.016;8.346;2022-10-31T16:27:23;13.50;99.90
1978;DHT22;989;53.016;8.346;2022-10-31T16:29:55;13.50;99.90
1978;DHT22;989;53.016;8.346;2022-10-31T16:32:32;13.40;99.90
1978;DHT22;989;53.016;8.346;2022-10-31T16:35:02;13.40;99.90
1978;DHT22;989;53.016;8.346;2022-10-31T16:37:43;13.40;99.90
1978;DHT22;989;53.016;8.346;2022-10-31T16:40:15;13.30;99.90
1978;DHT22;989;53.016;8.346;2022-10-31T16:42:42;13.30;99.90
1978;DHT22;989;53.016;8.346;2022-10-31T16:45:16;13.30;99.90
1978;DHT22;989;53.016;8.346;2022-10-31T16:47:47;13.30;99.90
1978;DHT22;989;53.016;8.346;2022-10-31T16:50:19;13.30;99.90
1978;DHT22;989;53.016;8.346;2022-10-31T16:52:47;13.20;99.90
1978;DHT22;989;53.016;8.346;2022-10-31T16:55:17;13.20;99.90
1978;DHT22;989;53.016;8.346;2022-10-31T16:57:47;13.20;99.90
1978;DHT22;989;53.016;8.346;2022-10-31T17:00:33;13.20;99.90
1978;DHT22;989;53.016;8.346;2022-10-31T17:02:59;13.20;99.90
1978;DHT22;989;53.016;8.346;2022-10-31T17:05:25;13.20;99.90
1978;DHT22;989;53.016;8.346;2022-10-31T17:07:55;13.20;99.90
1978;DHT22;989;53.016;8.346;2022-10-31T17:10:22;13.20;99.90
1978;DHT22;989;53.016;8.346;2022-10-31T17:12:49;13.20;99.90
1978;DHT22;989;53.016;8.346;2022-10-31T17:15:26;13.30;99.90
1978;DHT22;989;53.016;8.346;2022-10-31T17:17:53;13.30;99.90
1978;DHT22;989;53.016;8.346;2022-10-31T17:20:25;13.40;99.90
1978;DHT22;989;53.016;8.346;2022-10-31T17:22:55;13.40;99.90
1978;DHT22;989;53.016;8.346;2022-10-31T17:25:27;13.30;99.90
1978;DHT22;989;53.016;8.346;2022-10-31T17:27:54;13.40;99.90
1978;DHT22;989;53.016;8.346;2022-10-31T17:30:21;13.40;99.90
1978;DHT22;989;53.016;8.346;2022-10-31T17:32:47;13.40;99.90
1978;DHT22;989;53.016;8.346;2022-10-31T17:35:14;13.40;99.90
1978;DHT22;989;53.016;8.346;2022-10-31T17:37:42;13.40;99.90
1978;DHT22;989;53.016;8.346;2022-10-31T17:40:16;13.40;99.90
1978;DHT22;989;53.016;8.346;2022-10-31T17:42:55;13.40;99.90
1978;DHT22;989;53.016;8.346;2022-10-31T17:45:22;13.40;99.90
1978;DHT22;989;53.016;8.346;2022-10-31T17:47:50;13.30;99.90
1978;DHT22;989;53.016;8.346;2022-10-31T17:50:20;13.30;99.90
1978;DHT22;989;53.016;8.346;2022-10-31T17:52:47;13.30;99.90
1978;DHT22;989;53.016;8.346;2022-10-31T17:55:14;13.30;99.90
1978;DHT22;989;53.016;8.346;2022-10-31T17:57:40;13.30;99.90
1978;DHT22;989;53.016;8.346;2022-10-31T18:00:08;13.30;99.90
1978;DHT22;989;53.016;8.346;2022-10-31T18:02:40;13.30;99.90
1978;DHT22;989;53.016;8.346;2022-10-31T18:05:06;13.30;99.90
1978;DHT22;989;53.016;8.346;2022-10-31T18:07:33;13.30;99.90
1978;DHT22;989;53.016;8.346;2022-10-31T18:09:59;13.40;99.90
1978;DHT22;989;53.016;8.346;2022-10-31T18:12:26;13.40;99.90
1978;DHT22;989;53.016;8.346;2022-10-31T18:14:52;13.40;99.90
1978;DHT22;989;53.016;8.346;2022-10-31T18:17:19;13.40;99.90
1978;DHT22;989;53.016;8.346;2022-10-31T18:19:45;13.40;99.90
1978;DHT22;989;53.016;8.346;2022-10-31T18:22:11;13.40;99.90
1978;DHT22;989;53.016;8.346;2022-10-31T18:24:37;13.40;99.90
1978;DHT22;989;53.016;8.346;2022-10-31T18:27:03;13.40;99.90
1978;DHT22;989;53.016;8.346;2022-10-31T18:29:29;13.40;99.90
1978;DHT22;989;53.016;8.346;2022-10-31T18:31:55;13.40;99.90